createdAt,value
2022-09-28T00:01:24.082Z,1.70
2022-09-28T00:03:53.086Z,1.77
2022-09-28T00:06:21.926Z,1.40
2022-09-28T00:08:51.472Z,1.60
2022-09-28T00:11:20.691Z,1.50
2022-09-28T00:13:52.535Z,1.90
2022-09-28T00:16:22.259Z,1.80
2022-09-28T00:18:51.035Z,1.70
2022-09-28T00:21:21.700Z,1.50
2022-09-28T00:24:09.645Z,1.90
2022-09-28T00:26:36.848Z,1.90
2022-09-28T00:29:04.323Z,1.67
2022-09-28T00:31:33.633Z,1.70
2022-09-28T00:34:05.283Z,1.60
2022-09-28T00:36:33.077Z,1.70
2022-09-28T00:39:03.781Z,1.80
2022-09-28T00:41:30.916Z,1.95
2022-09-28T00:44:22.647Z,1.42
2022-09-28T00:46:52.890Z,1.67
2022-09-28T00:49:26.599Z,1.63
2022-09-28T00:51:53.337Z,1.60
2022-09-28T00:54:21.304Z,1.63
2022-09-28T00:56:48.565Z,1.50
2022-09-28T00:59:16.047Z,1.50
2022-09-28T01:01:42.878Z,1.40
2022-09-28T01:04:09.905Z,1.60
2022-09-28T01:06:38.855Z,1.40
2022-09-28T01:09:09.939Z,1.20
2022-09-28T01:11:39.521Z,1.13
2022-09-28T01:14:10.025Z,1.40
2022-09-28T01:16:50.197Z,1.20
2022-09-28T01:19:34.933Z,1.30
2022-09-28T01:22:32.992Z,1.20
2022-09-28T01:25:05.770Z,1.20
2022-09-28T01:27:36.097Z,1.30
2022-09-28T01:30:11.717Z,1.08
2022-09-28T01:33:12.715Z,0.93
2022-09-28T01:35:53.298Z,1.10
2022-09-28T01:38:25.245Z,1.00
2022-09-28T01:40:53.051Z,1.13
2022-09-28T01:43:32.418Z,1.00
2022-09-28T01:46:06.823Z,1.08
2022-09-28T01:48:46.262Z,1.00
2022-09-28T01:51:20.006Z,0.70
2022-09-28T01:53:53.323Z,0.95
2022-09-28T01:56:26.854Z,0.93
2022-09-28T01:58:59.554Z,1.00
2022-09-28T02:01:40.571Z,0.80
2022-09-28T02:04:16.953Z,0.70
2022-09-28T02:06:50.780Z,0.90
2022-09-28T02:09:33.091Z,0.90
2022-09-28T02:12:06.626Z,0.80
2022-09-28T02:14:38.587Z,0.80
2022-09-28T02:17:05.741Z,0.90
2022-09-28T02:19:33.361Z,0.80
2022-09-28T02:22:34.962Z,0.70
2022-09-28T02:25:31.464Z,0.60
2022-09-28T02:28:02.560Z,0.43
2022-09-28T02:30:35.761Z,0.50
2022-09-28T02:33:28.049Z,0.63
2022-09-28T02:35:56.068Z,0.50
2022-09-28T02:38:22.986Z,0.60
2022-09-28T02:41:18.169Z,1.10
2022-09-28T02:44:03.331Z,0.70
2022-09-28T02:46:39.277Z,0.70
2022-09-28T02:49:25.856Z,0.63
2022-09-28T02:52:08.761Z,0.50
2022-09-28T02:55:13.030Z,0.50
2022-09-28T02:58:03.792Z,0.70
2022-09-28T03:00:32.763Z,0.50
2022-09-28T03:03:05.860Z,0.60
2022-09-28T03:05:44.558Z,0.70
2022-09-28T03:08:29.609Z,0.60
2022-09-28T03:11:02.524Z,0.73
2022-09-28T03:13:30.949Z,0.68
2022-09-28T03:16:12.929Z,0.70
2022-09-28T03:18:40.446Z,0.50
2022-09-28T03:21:09.216Z,0.60
2022-09-28T03:23:36.085Z,0.70
2022-09-28T03:26:03.372Z,0.50
2022-09-28T03:28:30.305Z,0.50
2022-09-28T03:30:57.182Z,0.50
2022-09-28T03:33:24.057Z,0.70
2022-09-28T03:35:51.190Z,0.65
2022-09-28T03:38:19.338Z,0.60
2022-09-28T03:40:58.272Z,0.70
2022-09-28T03:43:26.536Z,0.60
2022-09-28T03:46:01.283Z,0.50
2022-09-28T03:48:32.647Z,0.60
2022-09-28T03:51:05.846Z,0.55
2022-09-28T03:53:33.682Z,0.60
2022-09-28T03:56:06.269Z,0.60
2022-09-28T03:58:33.241Z,0.68
2022-09-28T04:01:06.433Z,0.40
2022-09-28T04:03:34.237Z,0.60
2022-09-28T04:06:01.848Z,0.60
2022-09-28T04:08:28.847Z,0.60
2022-09-28T04:11:00.006Z,0.60
2022-09-28T04:13:28.537Z,0.60
2022-09-28T04:15:57.546Z,0.60
2022-09-28T04:18:24.830Z,0.60
2022-09-28T04:21:08.175Z,0.40
2022-09-28T04:23:36.479Z,0.52
2022-09-28T04:26:05.340Z,0.50
2022-09-28T04:28:51.142Z,0.50
2022-09-28T04:31:21.807Z,0.50
2022-09-28T04:33:48.913Z,0.50
2022-09-28T04:36:15.818Z,0.47
2022-09-28T04:38:52.746Z,0.55
2022-09-28T04:41:22.480Z,0.40
2022-09-28T04:43:50.343Z,0.68
2022-09-28T04:46:17.527Z,0.50
2022-09-28T04:48:44.535Z,0.40
2022-09-28T04:51:11.595Z,0.40
2022-09-28T04:53:38.513Z,0.50
2022-09-28T04:56:09.668Z,0.50
2022-09-28T04:58:36.771Z,0.40
2022-09-28T05:01:06.957Z,0.50
2022-09-28T05:03:34.436Z,0.50
2022-09-28T05:06:01.622Z,0.50
2022-09-28T05:08:28.650Z,0.40
2022-09-28T05:11:04.335Z,0.40
2022-09-28T05:13:32.237Z,0.40
2022-09-28T05:16:04.340Z,0.40
2022-09-28T05:18:32.588Z,0.40
2022-09-28T05:20:59.479Z,0.60
2022-09-28T05:23:26.270Z,0.40
2022-09-28T05:25:53.631Z,0.50
2022-09-28T05:28:26.090Z,0.50
2022-09-28T05:30:53.298Z,0.50
2022-09-28T05:33:20.518Z,0.50
2022-09-28T05:35:52.514Z,0.60
2022-09-28T05:38:20.694Z,0.40
2022-09-28T05:40:47.680Z,0.40
2022-09-28T05:43:14.700Z,0.52
2022-09-28T05:45:41.627Z,0.50
2022-09-28T05:48:08.712Z,0.50
2022-09-28T05:50:35.866Z,0.40
2022-09-28T05:53:06.346Z,0.50
2022-09-28T05:55:34.530Z,0.40
2022-09-28T05:58:03.416Z,0.40
2022-09-28T06:00:31.614Z,0.47
2022-09-28T06:03:09.114Z,0.60
2022-09-28T06:05:39.256Z,0.50
2022-09-28T06:08:08.395Z,0.40
2022-09-28T06:10:35.539Z,0.60
2022-09-28T06:13:02.972Z,0.50
2022-09-28T06:15:35.185Z,0.50
2022-09-28T06:18:07.731Z,0.60
2022-09-28T06:20:37.669Z,0.70
2022-09-28T06:23:04.837Z,0.70
2022-09-28T06:25:32.412Z,0.80
2022-09-28T06:28:06.661Z,0.90
2022-09-28T06:30:38.112Z,0.80
2022-09-28T06:33:07.000Z,0.80
2022-09-28T06:35:34.978Z,1.00
2022-09-28T06:38:02.446Z,1.00
2022-09-28T06:40:29.668Z,1.00
2022-09-28T06:42:59.088Z,0.90
2022-09-28T06:45:27.409Z,1.00
2022-09-28T06:47:59.222Z,1.00
2022-09-28T06:50:34.398Z,0.70
2022-09-28T06:53:02.237Z,0.90
2022-09-28T06:55:30.584Z,0.80
2022-09-28T06:58:02.806Z,0.80
2022-09-28T07:00:33.865Z,0.70
2022-09-28T07:03:03.302Z,0.90
2022-09-28T07:05:34.275Z,0.90
2022-09-28T07:08:02.018Z,0.90
2022-09-28T07:10:30.120Z,0.90
2022-09-28T07:12:58.957Z,0.90
2022-09-28T07:15:26.120Z,1.00
2022-09-28T07:18:03.894Z,1.10
2022-09-28T07:20:39.751Z,1.00
2022-09-28T07:23:18.926Z,0.82
2022-09-28T07:25:47.962Z,0.90
2022-09-28T07:28:15.515Z,1.00
2022-09-28T07:30:44.761Z,0.97
2022-09-28T07:33:14.612Z,0.90
2022-09-28T07:35:43.029Z,0.90
2022-09-28T07:38:10.774Z,0.80
2022-09-28T07:40:56.881Z,1.00
2022-09-28T07:43:23.990Z,1.00
2022-09-28T07:45:53.048Z,0.80
2022-09-28T07:48:21.020Z,1.03
2022-09-28T07:50:52.782Z,1.88
2022-09-28T07:53:21.385Z,0.90
2022-09-28T07:55:56.022Z,1.20
2022-09-28T07:58:23.397Z,1.10
2022-09-28T08:00:51.196Z,1.60
2022-09-28T08:03:20.176Z,1.70
2022-09-28T08:05:47.511Z,1.00
2022-09-28T08:08:15.375Z,1.20
2022-09-28T08:10:46.583Z,0.80
2022-09-28T08:13:16.325Z,0.90
2022-09-28T08:15:43.237Z,0.90
2022-09-28T08:18:10.520Z,0.80
2022-09-28T08:20:55.992Z,1.00
2022-09-28T08:23:23.612Z,0.80
2022-09-28T08:25:55.139Z,0.70
2022-09-28T08:28:24.165Z,0.70
2022-09-28T08:30:51.337Z,0.80
2022-09-28T08:33:22.825Z,0.80
2022-09-28T08:35:57.566Z,0.75
2022-09-28T08:38:26.721Z,0.60
2022-09-28T08:41:11.481Z,0.80
2022-09-28T08:43:56.261Z,0.60
2022-09-28T08:46:29.214Z,0.80
2022-09-28T08:49:23.739Z,0.70
2022-09-28T08:51:55.387Z,0.70
2022-09-28T08:54:44.064Z,0.68
2022-09-28T08:57:16.397Z,0.70
2022-09-28T09:00:19.335Z,0.60
2022-09-28T09:02:47.034Z,0.80
2022-09-28T09:05:19.090Z,0.80
2022-09-28T09:08:24.057Z,0.60
2022-09-28T09:11:00.790Z,0.80
2022-09-28T09:13:35.778Z,0.75
2022-09-28T09:16:33.129Z,0.90
2022-09-28T09:19:14.550Z,0.70
2022-09-28T09:21:42.689Z,0.80
2022-09-28T09:24:39.675Z,0.80
2022-09-28T09:27:32.346Z,0.70
2022-09-28T09:30:17.437Z,0.60
2022-09-28T09:32:53.396Z,0.60
2022-09-28T09:35:58.380Z,0.77
2022-09-28T09:38:40.728Z,0.80
2022-09-28T09:41:20.773Z,0.80
2022-09-28T09:44:00.972Z,1.10
2022-09-28T09:46:40.290Z,1.10
2022-09-28T09:49:29.109Z,1.20
2022-09-28T09:52:26.968Z,0.80
2022-09-28T09:55:18.673Z,0.80
2022-09-28T09:57:51.787Z,0.90
2022-09-28T10:00:18.968Z,1.10
2022-09-28T10:02:48.553Z,1.65
2022-09-28T10:05:18.298Z,1.40
2022-09-28T10:08:04.768Z,0.90
2022-09-28T10:11:01.802Z,1.00
2022-09-28T10:13:29.284Z,1.30
2022-09-28T10:15:56.358Z,0.85
2022-09-28T10:18:23.420Z,1.00
2022-09-28T10:20:50.369Z,1.25
2022-09-28T10:23:25.559Z,1.30
2022-09-28T10:25:56.834Z,1.50
2022-09-28T10:28:39.609Z,1.40
2022-09-28T10:31:52.881Z,1.60
2022-09-28T10:34:27.534Z,1.40
2022-09-28T10:36:59.820Z,1.10
2022-09-28T10:39:32.397Z,1.02
2022-09-28T10:42:03.643Z,1.10
2022-09-28T10:44:34.656Z,1.70
2022-09-28T10:47:05.304Z,2.17
2022-09-28T10:49:46.780Z,1.40
2022-09-28T10:52:31.084Z,1.42
2022-09-28T10:54:57.981Z,1.48
2022-09-28T10:57:29.427Z,1.80
2022-09-28T10:59:56.297Z,1.65
2022-09-28T11:02:35.993Z,1.20
2022-09-28T11:05:05.880Z,1.30
2022-09-28T11:07:34.739Z,1.02
2022-09-28T11:10:04.080Z,1.20
2022-09-28T11:12:39.641Z,1.02
2022-09-28T11:15:07.796Z,0.80
2022-09-28T11:17:40.435Z,1.13
2022-09-28T11:20:27.961Z,1.35
2022-09-28T11:23:15.802Z,2.50
2022-09-28T11:25:43.184Z,2.50
2022-09-28T11:28:24.004Z,2.30
2022-09-28T11:30:53.492Z,1.85
2022-09-28T11:33:36.970Z,1.40
2022-09-28T11:36:13.108Z,1.80
2022-09-28T11:38:48.654Z,1.58
2022-09-28T11:41:15.740Z,3.10
2022-09-28T11:44:04.352Z,3.42
2022-09-28T11:47:04.386Z,2.30
2022-09-28T11:50:00.106Z,1.92
2022-09-28T11:52:46.563Z,3.10
2022-09-28T11:55:35.031Z,5.75
2022-09-28T11:58:10.980Z,4.05
2022-09-28T12:00:43.666Z,1.70
2022-09-28T12:03:28.778Z,3.53
2022-09-28T12:06:04.145Z,7.90
2022-09-28T12:08:37.384Z,6.45
2022-09-28T12:11:35.987Z,10.50
2022-09-28T12:14:06.882Z,7.40
2022-09-28T12:17:15.374Z,8.85
2022-09-28T12:19:50.705Z,8.13
2022-09-28T12:22:29.958Z,10.67
2022-09-28T12:24:58.192Z,4.75
2022-09-28T12:28:00.498Z,12.88
2022-09-28T12:30:33.025Z,10.48
2022-09-28T12:33:13.892Z,8.15
2022-09-28T12:36:04.444Z,11.02
2022-09-28T12:39:18.176Z,11.70
2022-09-28T12:42:16.563Z,14.20
2022-09-28T12:45:13.889Z,9.52
2022-09-28T12:47:49.416Z,3.20
2022-09-28T12:50:54.035Z,3.25
2022-09-28T12:53:20.100Z,9.82
2022-09-28T12:55:57.534Z,5.70
2022-09-28T12:58:27.450Z,7.10
2022-09-28T13:01:03.718Z,13.10
2022-09-28T13:03:31.609Z,11.43
2022-09-28T13:06:25.270Z,9.27
2022-09-28T13:09:20.426Z,5.25
2022-09-28T13:11:51.425Z,10.88
2022-09-28T13:14:21.078Z,5.72
2022-09-28T13:17:00.984Z,11.40
2022-09-28T13:19:49.157Z,7.00
2022-09-28T13:22:39.023Z,6.93
2022-09-28T13:25:19.354Z,9.80
2022-09-28T13:28:18.058Z,7.78
2022-09-28T13:30:46.100Z,7.13
2022-09-28T13:33:20.065Z,9.95
2022-09-28T13:35:47.181Z,9.80
2022-09-28T13:38:17.464Z,14.32
2022-09-28T13:41:06.626Z,8.90
2022-09-28T13:43:54.761Z,13.30
2022-09-28T13:46:27.415Z,11.80
2022-09-28T13:48:54.338Z,2.17
2022-09-28T13:52:05.249Z,14.68
2022-09-28T13:54:55.541Z,3.08
2022-09-28T13:57:41.791Z,1.75
2022-09-28T14:00:11.968Z,1.70
2022-09-28T14:02:52.008Z,6.65
2022-09-28T14:05:44.068Z,1.85
2022-09-28T14:08:29.907Z,1.10
2022-09-28T14:11:17.876Z,1.55
2022-09-28T14:13:44.931Z,1.38
2022-09-28T14:16:17.870Z,1.20
2022-09-28T14:18:57.062Z,1.60
2022-09-28T14:21:42.485Z,1.75
2022-09-28T14:24:13.825Z,1.52
2022-09-28T14:27:06.639Z,1.17
2022-09-28T14:29:38.256Z,1.10
2022-09-28T14:32:24.945Z,1.10
2022-09-28T14:35:01.394Z,1.33
2022-09-28T14:37:50.744Z,1.10
2022-09-28T14:40:49.395Z,0.80
2022-09-28T14:43:47.612Z,1.67
2022-09-28T14:46:14.659Z,1.00
2022-09-28T14:48:49.380Z,0.98
2022-09-28T14:51:26.250Z,0.93
2022-09-28T14:53:54.646Z,0.90
2022-09-28T14:56:22.425Z,0.60
2022-09-28T14:58:57.421Z,0.70
2022-09-28T15:01:26.101Z,0.77
2022-09-28T15:03:56.604Z,0.50
2022-09-28T15:06:24.728Z,2.93
2022-09-28T15:08:51.724Z,9.33
2022-09-28T15:11:23.609Z,30.33
2022-09-28T15:13:53.977Z,6.40
2022-09-28T15:16:24.171Z,2.17
2022-09-28T15:19:08.089Z,1.05
2022-09-28T15:21:40.873Z,0.90
2022-09-28T15:24:33.636Z,3.00
2022-09-28T15:27:02.118Z,2.50
2022-09-28T15:29:33.342Z,8.25
2022-09-28T15:32:00.472Z,5.05
2022-09-28T15:34:56.802Z,2.00
2022-09-28T15:37:38.440Z,8.13
2022-09-28T15:40:15.244Z,8.27
2022-09-28T15:42:43.569Z,5.38
2022-09-28T15:45:27.302Z,5.00
2022-09-28T15:48:08.104Z,1.70
2022-09-28T15:50:36.717Z,1.10
2022-09-28T15:53:05.640Z,1.40
2022-09-28T15:55:39.122Z,2.88
2022-09-28T15:58:17.289Z,3.40
2022-09-28T16:00:46.481Z,2.90
2022-09-28T16:03:29.028Z,3.50
2022-09-28T16:06:08.846Z,1.90
2022-09-28T16:08:48.844Z,5.05
2022-09-28T16:11:16.219Z,2.00
2022-09-28T16:14:06.764Z,5.10
2022-09-28T16:16:50.294Z,1.35
2022-09-28T16:19:30.301Z,1.20
2022-09-28T16:21:59.509Z,1.70
2022-09-28T16:24:33.166Z,2.75
2022-09-28T16:27:06.171Z,3.78
2022-09-28T16:29:42.050Z,8.50
2022-09-28T16:32:27.095Z,2.92
2022-09-28T16:35:18.705Z,5.30
2022-09-28T16:37:47.176Z,9.88
2022-09-28T16:40:14.445Z,2.70
2022-09-28T16:42:48.822Z,3.67
2022-09-28T16:45:25.642Z,4.47
2022-09-28T16:47:55.445Z,3.17
2022-09-28T16:50:23.682Z,4.45
2022-09-28T16:53:29.345Z,3.70
2022-09-28T16:55:56.298Z,3.35
2022-09-28T16:58:23.842Z,5.90
2022-09-28T17:00:54.665Z,5.90
2022-09-28T17:03:23.494Z,6.50
2022-09-28T17:05:51.540Z,9.00
2022-09-28T17:08:22.224Z,7.00
2022-09-28T17:11:16.844Z,6.75
2022-09-28T17:13:47.031Z,7.38
2022-09-28T17:16:32.229Z,7.23
2022-09-28T17:19:05.731Z,3.35
2022-09-28T17:21:32.632Z,4.22
2022-09-28T17:23:59.631Z,4.82
2022-09-28T17:26:31.836Z,6.55
2022-09-28T17:28:59.675Z,6.15
2022-09-28T17:31:27.395Z,18.38
2022-09-28T17:33:54.535Z,3.47
2022-09-28T17:36:22.640Z,11.23
2022-09-28T17:38:51.669Z,4.93
2022-09-28T17:41:20.988Z,8.10
2022-09-28T17:43:48.769Z,3.30
2022-09-28T17:46:33.547Z,4.88
2022-09-28T17:49:03.213Z,4.60
2022-09-28T17:51:33.156Z,10.20
2022-09-28T17:54:01.183Z,11.20
2022-09-28T17:56:32.202Z,3.97
2022-09-28T17:59:12.714Z,4.00
2022-09-28T18:01:40.252Z,18.03
2022-09-28T18:04:09.306Z,14.05
2022-09-28T18:06:37.408Z,8.07
2022-09-28T18:09:05.127Z,17.77
2022-09-28T18:11:33.645Z,9.70
2022-09-28T18:14:00.941Z,9.40
2022-09-28T18:16:28.857Z,13.27
2022-09-28T18:18:56.405Z,1.60
2022-09-28T18:21:23.450Z,6.20
2022-09-28T18:23:50.664Z,10.63
2022-09-28T18:26:19.857Z,7.55
2022-09-28T18:28:47.055Z,10.43
2022-09-28T18:31:15.830Z,15.02
2022-09-28T18:33:43.403Z,7.65
2022-09-28T18:36:10.338Z,3.10
2022-09-28T18:38:38.171Z,5.68
2022-09-28T18:41:10.462Z,3.80
2022-09-28T18:43:37.778Z,4.80
2022-09-28T18:46:11.331Z,6.18
2022-09-28T18:48:40.552Z,3.70
2022-09-28T18:51:12.262Z,4.50
2022-09-28T18:53:40.227Z,2.53
2022-09-28T18:56:09.470Z,2.70
2022-09-28T18:58:37.973Z,2.50
2022-09-28T19:01:29.355Z,1.70
2022-09-28T19:04:01.953Z,2.20
2022-09-28T19:06:29.825Z,2.05
2022-09-28T19:08:56.882Z,2.00
2022-09-28T19:11:24.597Z,1.50
2022-09-28T19:13:52.956Z,1.20
2022-09-28T19:16:22.323Z,2.27
2022-09-28T19:18:50.301Z,3.67
2022-09-28T19:21:17.562Z,1.70
2022-09-28T19:23:49.285Z,3.50
2022-09-28T19:26:21.025Z,3.70
2022-09-28T19:28:48.543Z,3.30
2022-09-28T19:31:16.725Z,1.70
2022-09-28T19:33:45.979Z,1.70
2022-09-28T19:36:18.898Z,2.38
2022-09-28T19:38:46.438Z,1.45
2022-09-28T19:41:39.293Z,2.13
2022-09-28T19:44:26.981Z,2.72
2022-09-28T19:47:01.135Z,1.70
2022-09-28T19:49:32.935Z,1.60
2022-09-28T19:52:16.057Z,1.83
2022-09-28T19:54:55.729Z,2.40
2022-09-28T19:57:28.370Z,2.53
2022-09-28T20:00:01.674Z,3.40
2022-09-28T20:02:29.016Z,1.50
2022-09-28T20:04:55.971Z,1.77
2022-09-28T20:07:22.841Z,1.70
2022-09-28T20:09:49.860Z,1.90
2022-09-28T20:12:16.704Z,1.20
2022-09-28T20:14:43.625Z,1.30
2022-09-28T20:17:10.515Z,2.03
2022-09-28T20:19:37.511Z,1.40
2022-09-28T20:22:04.756Z,1.30
2022-09-28T20:24:32.605Z,1.50
2022-09-28T20:27:01.260Z,1.45
2022-09-28T20:29:28.937Z,1.42
2022-09-28T20:31:56.744Z,1.40
2022-09-28T20:34:23.714Z,1.50
2022-09-28T20:36:50.506Z,1.40
2022-09-28T20:39:17.630Z,1.30
2022-09-28T20:41:46.074Z,1.40
2022-09-28T20:44:13.093Z,1.58
2022-09-28T20:46:40.080Z,1.20
2022-09-28T20:49:07.733Z,1.40
2022-09-28T20:51:34.738Z,1.70
2022-09-28T20:54:01.977Z,1.70
2022-09-28T20:56:37.718Z,1.30
2022-09-28T20:59:10.058Z,1.40
2022-09-28T21:01:37.609Z,1.38
2022-09-28T21:04:06.011Z,1.40
2022-09-28T21:06:35.363Z,1.63
2022-09-28T21:09:03.539Z,1.60
2022-09-28T21:11:31.173Z,1.95
2022-09-28T21:14:00.260Z,2.22
2022-09-28T21:16:29.762Z,1.75
2022-09-28T21:18:57.238Z,1.40
2022-09-28T21:21:25.158Z,1.80
2022-09-28T21:23:52.953Z,1.60
2022-09-28T21:26:25.065Z,1.50
2022-09-28T21:29:00.503Z,1.40
2022-09-28T21:31:30.587Z,1.30
2022-09-28T21:33:58.130Z,1.40
2022-09-28T21:36:25.816Z,1.63
2022-09-28T21:38:55.148Z,1.48
2022-09-28T21:41:22.869Z,1.70
2022-09-28T21:43:49.752Z,1.40
2022-09-28T21:46:17.621Z,2.20
2022-09-28T21:48:44.750Z,1.52
2022-09-28T21:51:14.454Z,1.30
2022-09-28T21:53:41.461Z,1.10
2022-09-28T21:56:10.650Z,1.40
2022-09-28T21:58:38.201Z,1.30
2022-09-28T22:01:15.532Z,1.43
2022-09-28T22:03:44.750Z,2.17
2022-09-28T22:06:12.190Z,2.28
2022-09-28T22:08:39.094Z,1.30
2022-09-28T22:11:11.258Z,1.50
2022-09-28T22:13:58.485Z,1.02
2022-09-28T22:16:29.403Z,1.38
2022-09-28T22:18:56.970Z,1.30
2022-09-28T22:21:26.290Z,1.10
2022-09-28T22:23:53.511Z,1.35
2022-09-28T22:26:23.478Z,1.15
2022-09-28T22:28:53.581Z,1.13
2022-09-28T22:31:22.949Z,1.30
2022-09-28T22:33:50.085Z,1.17
2022-09-28T22:36:17.198Z,1.23
2022-09-28T22:38:45.065Z,1.17
2022-09-28T22:41:12.989Z,1.10
2022-09-28T22:43:39.917Z,1.15
2022-09-28T22:46:09.500Z,1.00
2022-09-28T22:48:37.303Z,1.45
2022-09-28T22:51:06.375Z,1.17
2022-09-28T22:53:34.385Z,1.30
2022-09-28T22:56:04.035Z,1.20
2022-09-28T22:58:33.692Z,1.30
2022-09-28T23:01:07.774Z,1.30
2022-09-28T23:03:35.651Z,1.40
2022-09-28T23:06:02.915Z,1.60
2022-09-28T23:08:30.269Z,1.30
2022-09-28T23:10:57.098Z,1.27
2022-09-28T23:13:24.056Z,1.30
2022-09-28T23:16:01.022Z,1.02
2022-09-28T23:18:31.514Z,1.30
2022-09-28T23:21:04.409Z,1.20
2022-09-28T23:23:31.873Z,1.20
2022-09-28T23:25:59.123Z,1.10
2022-09-28T23:28:27.015Z,1.10
2022-09-28T23:30:54.364Z,1.20
2022-09-28T23:33:22.312Z,1.40
2022-09-28T23:35:49.830Z,2.30
2022-09-28T23:38:18.304Z,1.40
2022-09-28T23:40:46.612Z,1.10
2022-09-28T23:43:14.628Z,1.20
2022-09-28T23:45:45.586Z,1.20
2022-09-28T23:48:14.898Z,1.20
2022-09-28T23:50:43.474Z,1.10
2022-09-28T23:53:12.077Z,1.30
2022-09-28T23:55:38.997Z,1.00
2022-09-28T23:58:06.165Z,1.20
